sensor_id;sensor_type;location;lat;lon;timestamp;pressure;altitude;pressure_sealevel;temperature;humidity
50105;BME280;47690;39.202;-77.198;2023-02-19T16:43:38;100722.72;;;39.30;6.23
50105;BME280;47690;39.202;-77.198;2023-02-19T16:46:41;100713.66;;;38.96;6.44
50105;BME280;47690;39.202;-77.198;2023-02-19T16:49:46;100697.06;;;38.86;6.55
50105;BME280;47690;39.202;-77.198;2023-02-19T16:52:54;100690.00;;;38.85;6.58
50105;BME280;47690;39.202;-77.198;2023-02-19T16:56:49;100662.41;;;39.38;6.19
50105;BME280;47690;39.202;-77.198;2023-02-19T16:59:49;100653.69;;;39.09;6.50
50105;BME280;47690;39.202;-77.198;2023-02-19T17:02:51;100657.03;;;39.25;6.25
50105;BME280;47690;39.202;-77.198;2023-02-19T17:06:05;100642.53;;;39.39;6.11
50105;BME280;47690;39.202;-77.198;2023-02-19T17:09:14;100640.91;;;39.45;6.30
50105;BME280;47690;39.202;-77.198;2023-02-19T17:12:21;100639.66;;;39.54;6.15
50105;BME280;47690;39.202;-77.198;2023-02-19T17:15:38;100627.44;;;39.79;6.10
50105;BME280;47690;39.202;-77.198;2023-02-19T17:19:33;100620.28;;;40.32;5.57
50105;BME280;47690;39.202;-77.198;2023-02-19T17:22:30;100617.81;;;40.30;6.05
50105;BME280;47690;39.202;-77.198;2023-02-19T17:25:52;100595.34;;;40.50;5.60
50105;BME280;47690;39.202;-77.198;2023-02-19T17:29:02;100586.88;;;40.33;5.78
50105;BME280;47690;39.202;-77.198;2023-02-19T17:32:09;100582.97;;;40.22;5.99
50105;BME280;47690;39.202;-77.198;2023-02-19T17:35:15;100572.63;;;40.19;5.75
50105;BME280;47690;39.202;-77.198;2023-02-19T17:38:18;100568.66;;;40.21;6.20
50105;BME280;47690;39.202;-77.198;2023-02-19T17:41:30;100562.03;;;40.24;5.70
50105;BME280;47690;39.202;-77.198;2023-02-19T17:44:34;100547.69;;;40.23;5.97
50105;BME280;47690;39.202;-77.198;2023-02-19T17:47:40;100542.47;;;40.35;5.92
50105;BME280;47690;39.202;-77.198;2023-02-19T17:50:45;100535.13;;;41.71;4.94
50105;BME280;47690;39.202;-77.198;2023-02-19T17:53:51;100537.22;;;42.25;4.35
50105;BME280;47690;39.202;-77.198;2023-02-19T17:57:25;100527.53;;;41.36;4.95
50105;BME280;47690;39.202;-77.198;2023-02-19T18:00:30;100503.03;;;41.05;5.67
50105;BME280;47690;39.202;-77.198;2023-02-19T18:03:34;100502.53;;;40.90;5.77
50105;BME280;47690;39.202;-77.198;2023-02-19T18:06:37;100493.25;;;40.79;5.29
50105;BME280;47690;39.202;-77.198;2023-02-19T18:09:42;100497.91;;;40.65;5.96
50105;BME280;47690;39.202;-77.198;2023-02-19T18:12:46;100475.75;;;40.56;5.91
50105;BME280;47690;39.202;-77.198;2023-02-19T18:15:53;100469.56;;;40.49;5.55
50105;BME280;47690;39.202;-77.198;2023-02-19T18:18:58;100464.75;;;40.51;5.58
50105;BME280;47690;39.202;-77.198;2023-02-19T18:22:03;100453.94;;;40.58;5.66
50105;BME280;47690;39.202;-77.198;2023-02-19T18:25:10;100446.69;;;40.83;5.60
50105;BME280;47690;39.202;-77.198;2023-02-19T18:28:14;100437.25;;;40.93;5.39
50105;BME280;47690;39.202;-77.198;2023-02-19T18:31:46;100420.75;;;41.27;5.04
50105;BME280;47690;39.202;-77.198;2023-02-19T18:34:51;100411.97;;;40.87;5.79
50105;BME280;47690;39.202;-77.198;2023-02-19T18:37:54;100393.88;;;42.18;4.51
50105;BME280;47690;39.202;-77.198;2023-02-19T18:40:58;100391.28;;;41.25;5.54
50105;BME280;47690;39.202;-77.198;2023-02-19T18:44:02;100380.78;;;40.91;5.44
50105;BME280;47690;39.202;-77.198;2023-02-19T18:47:08;100363.84;;;40.77;5.35
50105;BME280;47690;39.202;-77.198;2023-02-19T18:50:18;100359.63;;;40.88;5.53
50105;BME280;47690;39.202;-77.198;2023-02-19T18:53:34;100335.00;;;42.44;4.60
50105;BME280;47690;39.202;-77.198;2023-02-19T18:56:58;100325.56;;;41.81;5.32
50105;BME280;47690;39.202;-77.198;2023-02-19T19:00:35;100317.91;;;42.20;4.91
50105;BME280;47690;39.202;-77.198;2023-02-19T19:03:31;100320.25;;;40.80;5.76
50105;BME280;47690;39.202;-77.198;2023-02-19T19:06:34;100300.50;;;41.24;5.63
50105;BME280;47690;39.202;-77.198;2023-02-19T19:09:38;100296.72;;;40.62;5.77
50105;BME280;47690;39.202;-77.198;2023-02-19T19:12:41;100285.94;;;40.62;5.70
50105;BME280;47690;39.202;-77.198;2023-02-19T19:15:51;100283.13;;;40.94;5.52
50105;BME280;47690;39.202;-77.198;2023-02-19T19:18:55;100278.69;;;41.19;5.18
50105;BME280;47690;39.202;-77.198;2023-02-19T19:22:03;100267.50;;;40.78;5.88
50105;BME280;47690;39.202;-77.198;2023-02-19T19:25:05;100253.06;;;40.65;5.79
50105;BME280;47690;39.202;-77.198;2023-02-19T19:28:23;100252.88;;;40.86;5.76
50105;BME280;47690;39.202;-77.198;2023-02-19T19:31:59;100230.97;;;41.13;5.13
50105;BME280;47690;39.202;-77.198;2023-02-19T19:35:03;100226.56;;;41.00;5.47
50105;BME280;47690;39.202;-77.198;2023-02-19T19:38:09;100214.94;;;40.99;5.25
50105;BME280;47690;39.202;-77.198;2023-02-19T19:41:18;100211.53;;;41.04;5.36
50105;BME280;47690;39.202;-77.198;2023-02-19T19:44:45;100213.66;;;41.02;5.14
50105;BME280;47690;39.202;-77.198;2023-02-19T19:47:46;100200.31;;;40.88;5.62
50105;BME280;47690;39.202;-77.198;2023-02-19T19:50:42;100192.22;;;40.88;5.12
50105;BME280;47690;39.202;-77.198;2023-02-19T19:53:59;100187.06;;;41.17;4.81
50105;BME280;47690;39.202;-77.198;2023-02-19T19:57:03;100174.59;;;41.16;4.96
50105;BME280;47690;39.202;-77.198;2023-02-19T20:00:13;100170.13;;;41.29;5.18
50105;BME280;47690;39.202;-77.198;2023-02-19T20:03:38;100154.28;;;41.14;4.90
50105;BME280;47690;39.202;-77.198;2023-02-19T20:06:47;100148.66;;;41.15;5.06
50105;BME280;47690;39.202;-77.198;2023-02-19T20:09:51;100148.75;;;41.08;5.09
50105;BME280;47690;39.202;-77.198;2023-02-19T20:12:54;100125.34;;;41.33;4.75
50105;BME280;47690;39.202;-77.198;2023-02-19T20:16:00;100115.50;;;41.39;5.13
50105;BME280;47690;39.202;-77.198;2023-02-19T20:19:06;100107.75;;;41.42;4.71
50105;BME280;47690;39.202;-77.198;2023-02-19T20:22:11;100101.13;;;41.81;4.96
50105;BME280;47690;39.202;-77.198;2023-02-19T20:25:34;100096.69;;;41.44;4.80
50105;BME280;47690;39.202;-77.198;2023-02-19T20:28:31;100092.19;;;41.68;4.62
50105;BME280;47690;39.202;-77.198;2023-02-19T20:31:31;100083.81;;;42.05;4.63
50105;BME280;47690;39.202;-77.198;2023-02-19T20:34:33;100077.81;;;42.03;4.46
50105;BME280;47690;39.202;-77.198;2023-02-19T20:38:01;100052.19;;;42.06;4.53
50105;BME280;47690;39.202;-77.198;2023-02-19T20:40:59;100059.13;;;42.02;4.13
50105;BME280;47690;39.202;-77.198;2023-02-19T20:44:05;100051.84;;;41.67;4.78
50105;BME280;47690;39.202;-77.198;2023-02-19T20:47:11;100045.84;;;41.53;4.76
50105;BME280;47690;39.202;-77.198;2023-02-19T20:50:43;100045.50;;;41.85;4.01
50105;BME280;47690;39.202;-77.198;2023-02-19T20:53:49;100032.13;;;41.78;4.59
50105;BME280;47690;39.202;-77.198;2023-02-19T20:56:55;100028.69;;;41.83;4.18
50105;BME280;47690;39.202;-77.198;2023-02-19T21:00:10;100026.34;;;41.50;4.79
50105;BME280;47690;39.202;-77.198;2023-02-19T21:03:13;100017.88;;;41.35;4.77
50105;BME280;47690;39.202;-77.198;2023-02-19T21:06:21;100006.50;;;41.69;4.57
50105;BME280;47690;39.202;-77.198;2023-02-19T21:09:26;99988.69;;;41.97;4.08
50105;BME280;47690;39.202;-77.198;2023-02-19T21:12:46;99984.28;;;41.78;4.39
50105;BME280;47690;39.202;-77.198;2023-02-19T21:15:55;99973.22;;;41.56;3.89
50105;BME280;47690;39.202;-77.198;2023-02-19T21:19:10;99973.72;;;41.53;4.50
50105;BME280;47690;39.202;-77.198;2023-02-19T21:22:39;99969.31;;;41.88;4.35
50105;BME280;47690;39.202;-77.198;2023-02-19T21:25:51;99972.03;;;41.88;4.58
50105;BME280;47690;39.202;-77.198;2023-02-19T21:28:50;99976.06;;;41.73;4.25
50105;BME280;47690;39.202;-77.198;2023-02-19T21:31:55;99979.34;;;41.75;4.44
50105;BME280;47690;39.202;-77.198;2023-02-19T21:34:59;99981.47;;;41.73;4.27
50105;BME280;47690;39.202;-77.198;2023-02-19T21:38:03;99971.38;;;42.22;4.18
50105;BME280;47690;39.202;-77.198;2023-02-19T21:41:10;99960.50;;;41.92;4.32
50105;BME280;47690;39.202;-77.198;2023-02-19T21:44:39;99963.72;;;42.18;4.23
50105;BME280;47690;39.202;-77.198;2023-02-19T21:47:42;99968.00;;;42.02;4.45
50105;BME280;47690;39.202;-77.198;2023-02-19T21:51:03;99955.38;;;42.08;4.30
50105;BME280;47690;39.202;-77.198;2023-02-19T21:54:06;99966.34;;;42.13;4.40
50105;BME280;47690;39.202;-77.198;2023-02-19T21:57:11;99955.25;;;42.15;4.58
50105;BME280;47690;39.202;-77.198;2023-02-19T22:00:19;99965.75;;;42.11;4.80
50105;BME280;47690;39.202;-77.198;2023-02-19T22:03:39;99949.31;;;42.30;4.84
50105;BME280;47690;39.202;-77.198;2023-02-19T22:06:43;99953.44;;;42.32;5.08
50105;BME280;47690;39.202;-77.198;2023-02-19T22:09:50;99950.72;;;42.32;4.99
50105;BME280;47690;39.202;-77.198;2023-02-19T22:12:53;99945.88;;;42.35;4.74
50105;BME280;47690;39.202;-77.198;2023-02-19T22:15:58;99944.44;;;42.44;5.02
50105;BME280;47690;39.202;-77.198;2023-02-19T22:19:03;99961.84;;;42.48;4.99
50105;BME280;47690;39.202;-77.198;2023-02-19T22:22:05;99965.06;;;42.62;5.05
50105;BME280;47690;39.202;-77.198;2023-02-19T22:25:10;99968.09;;;42.66;5.24
50105;BME280;47690;39.202;-77.198;2023-02-19T22:28:22;99959.47;;;42.52;5.13
50105;BME280;47690;39.202;-77.198;2023-02-19T22:31:26;99958.88;;;42.50;5.06
50105;BME280;47690;39.202;-77.198;2023-02-19T22:34:37;99958.59;;;42.63;5.59
50105;BME280;47690;39.202;-77.198;2023-02-19T22:37:45;99943.91;;;42.59;5.17
50105;BME280;47690;39.202;-77.198;2023-02-19T22:40:46;99953.22;;;42.51;5.13
50105;BME280;47690;39.202;-77.198;2023-02-19T22:43:55;99943.09;;;42.76;5.11
50105;BME280;47690;39.202;-77.198;2023-02-19T22:46:58;99935.72;;;42.71;5.25
50105;BME280;47690;39.202;-77.198;2023-02-19T22:50:02;99928.00;;;42.63;5.49
50105;BME280;47690;39.202;-77.198;2023-02-19T22:53:07;99939.84;;;42.44;5.34
50105;BME280;47690;39.202;-77.198;2023-02-19T22:56:13;99943.09;;;42.29;5.31
50105;BME280;47690;39.202;-77.198;2023-02-19T22:59:44;99937.19;;;42.32;5.23
50105;BME280;47690;39.202;-77.198;2023-02-19T23:02:50;99945.19;;;41.98;6.02
50105;BME280;47690;39.202;-77.198;2023-02-19T23:05:53;99935.56;;;41.90;5.60
50105;BME280;47690;39.202;-77.198;2023-02-19T23:09:26;99937.88;;;42.11;5.25
50105;BME280;47690;39.202;-77.198;2023-02-19T23:12:31;99939.22;;;41.84;5.78
50105;BME280;47690;39.202;-77.198;2023-02-19T23:15:35;99938.09;;;41.56;5.73
50105;BME280;47690;39.202;-77.198;2023-02-19T23:18:43;99944.09;;;41.46;5.81
50105;BME280;47690;39.202;-77.198;2023-02-19T23:21:49;99939.16;;;42.66;4.88
50105;BME280;47690;39.202;-77.198;2023-02-19T23:24:54;99932.69;;;41.68;5.73
50105;BME280;47690;39.202;-77.198;2023-02-19T23:27:59;99944.22;;;41.28;5.82
50105;BME280;47690;39.202;-77.198;2023-02-19T23:31:03;99938.53;;;41.17;5.43
50105;BME280;47690;39.202;-77.198;2023-02-19T23:34:09;99931.63;;;41.09;5.52
50105;BME280;47690;39.202;-77.198;2023-02-19T23:37:22;99938.53;;;41.17;5.73
50105;BME280;47690;39.202;-77.198;2023-02-19T23:40:34;99932.38;;;41.29;6.02
50105;BME280;47690;39.202;-77.198;2023-02-19T23:43:30;99925.38;;;41.21;5.38
50105;BME280;47690;39.202;-77.198;2023-02-19T23:46:25;99920.22;;;41.07;5.51
50105;BME280;47690;39.202;-77.198;2023-02-19T23:49:31;99921.88;;;41.20;6.05
50105;BME280;47690;39.202;-77.198;2023-02-19T23:52:35;99917.06;;;40.99;5.79
50105;BME280;47690;39.202;-77.198;2023-02-19T23:55:38;99923.84;;;40.89;6.27
50105;BME280;47690;39.202;-77.198;2023-02-19T23:58:42;99926.94;;;41.05;6.20
